createdAt,value
2022-09-30T00:06:10.094Z,99730.50
2022-09-30T00:09:51.669Z,99737.39
2022-09-30T00:13:24.237Z,99740.16
2022-09-30T00:22:28.209Z,99735.95
2022-09-30T00:56:50.599Z,99754.78
2022-09-30T01:46:06.498Z,99798.76
2022-09-30T01:49:36.679Z,99797.23
2022-09-30T01:58:10.955Z,99806.42
2022-09-30T02:05:57.063Z,99811.84
2022-09-30T02:14:09.492Z,99814.13
2022-09-30T03:25:33.866Z,99828.34
2022-09-30T03:29:49.459Z,99826.89
2022-09-30T03:34:17.096Z,99834.59
2022-09-30T03:41:54.084Z,99842.78
2022-09-30T03:46:51.970Z,99847.34
2022-09-30T05:28:01.492Z,99901.25
2022-09-30T05:31:30.597Z,99905.48
2022-09-30T05:34:33.926Z,99908.16
2022-09-30T05:38:32.301Z,99910.77
2022-09-30T05:46:05.357Z,99912.11
2022-09-30T05:54:03.994Z,99914.64
2022-09-30T05:57:44.607Z,99926.05
2022-09-30T06:01:14.018Z,99931.56
2022-09-30T06:05:21.455Z,99934.05
2022-09-30T06:12:14.054Z,99940.05
2022-09-30T06:19:48.177Z,99953.27
2022-09-30T06:23:46.809Z,99955.92
2022-09-30T07:11:28.857Z,99987.56
2022-09-30T07:15:03.891Z,99986.55
2022-09-30T07:18:55.601Z,99995.14
2022-09-30T07:26:21.504Z,100003.68
2022-09-30T07:58:22.396Z,100016.95
2022-09-30T08:00:23.473Z,100021.77
2022-09-30T08:04:05.270Z,100022.83
2022-09-30T08:07:55.968Z,100023.94
2022-09-30T08:15:44.969Z,100035.09
2022-09-30T08:33:31.687Z,100050.80
2022-09-30T09:36:19.358Z,100076.45
2022-09-30T09:39:51.941Z,100080.01
2022-09-30T09:42:50.287Z,100081.24
2022-09-30T09:45:42.553Z,100080.81
2022-09-30T09:48:16.168Z,100079.09
2022-09-30T09:54:07.350Z,100087.40
2022-09-30T09:56:39.735Z,100085.50
2022-09-30T09:59:25.582Z,100085.80
2022-09-30T10:02:32.803Z,100087.14
2022-09-30T10:05:11.819Z,100082.10
2022-09-30T10:08:20.193Z,100082.27
2022-09-30T10:10:56.038Z,100084.41
2022-09-30T10:18:38.139Z,100087.57
2022-09-30T10:21:26.158Z,100088.99
2022-09-30T10:23:55.286Z,100088.36
2022-09-30T10:29:06.113Z,100098.73
2022-09-30T10:31:44.264Z,100100.09
2022-09-30T10:34:28.454Z,100097.07
2022-09-30T10:37:01.696Z,100099.56
2022-09-30T10:39:34.629Z,100102.60
2022-09-30T10:42:26.291Z,100102.20
2022-09-30T10:45:10.657Z,100104.85
2022-09-30T10:47:48.091Z,100109.67
2022-09-30T10:50:22.716Z,100112.70
2022-09-30T10:53:13.537Z,100110.23
2022-09-30T10:55:45.557Z,100110.73
2022-09-30T10:58:26.509Z,100110.73
2022-09-30T11:01:36.770Z,100111.08
2022-09-30T11:04:16.012Z,100109.85
2022-09-30T11:06:47.440Z,100111.24
2022-09-30T11:09:40.658Z,100113.26
2022-09-30T11:12:32.673Z,100107.47
2022-09-30T11:15:03.945Z,100100.61
2022-09-30T11:17:47.112Z,100096.34
2022-09-30T11:20:32.644Z,100096.06
2022-09-30T11:23:11.392Z,100091.11
2022-09-30T11:25:58.103Z,100092.89
2022-09-30T11:28:52.459Z,100092.75
2022-09-30T11:31:43.230Z,100091.69
2022-09-30T11:34:36.921Z,100084.20
2022-09-30T11:37:28.124Z,100085.36
2022-09-30T11:40:23.426Z,100084.15
2022-09-30T11:43:08.386Z,100088.02
2022-09-30T11:45:54.634Z,100088.61
2022-09-30T11:49:02.215Z,100087.34
2022-09-30T11:52:04.256Z,100091.88
2022-09-30T11:55:00.835Z,100091.18
2022-09-30T11:57:52.120Z,100085.45
2022-09-30T12:00:21.730Z,100081.14
2022-09-30T12:03:03.266Z,100077.41
2022-09-30T12:05:45.492Z,100079.64
2022-09-30T12:08:35.308Z,100082.94
2022-09-30T12:11:45.461Z,100084.55
2022-09-30T12:14:36.011Z,100092.05
2022-09-30T12:17:18.515Z,100091.98
2022-09-30T12:19:55.488Z,100086.95
2022-09-30T12:22:41.665Z,100082.65
2022-09-30T12:25:22.944Z,100084.13
2022-09-30T12:28:24.090Z,100084.27
2022-09-30T12:31:31.749Z,100088.02
2022-09-30T12:34:41.235Z,100087.34
2022-09-30T12:37:50.233Z,100086.58
2022-09-30T12:40:58.506Z,100088.64
2022-09-30T12:44:08.991Z,100091.16
2022-09-30T12:47:38.781Z,100099.06
2022-09-30T12:50:10.356Z,100104.92
2022-09-30T12:52:46.537Z,100106.98
2022-09-30T12:55:32.075Z,100107.41
2022-09-30T12:58:03.626Z,100106.94
2022-09-30T13:00:41.600Z,100109.82
2022-09-30T13:03:22.205Z,100108.11
2022-09-30T13:06:00.191Z,100109.20
2022-09-30T13:08:46.006Z,100108.06
2022-09-30T13:11:36.425Z,100104.23
2022-09-30T13:14:47.562Z,100098.90
2022-09-30T13:21:11.230Z,100099.34
2022-09-30T13:23:57.427Z,100098.23
2022-09-30T13:26:29.964Z,100098.23
2022-09-30T13:29:18.182Z,100098.23
2022-09-30T13:31:54.711Z,100097.36
2022-09-30T13:34:53.430Z,100099.15
2022-09-30T13:37:39.179Z,100095.89
2022-09-30T13:40:37.576Z,100094.75
2022-09-30T13:43:51.302Z,100096.21
2022-09-30T13:46:43.663Z,100097.61
2022-09-30T13:49:47.569Z,100099.13
2022-09-30T13:52:31.398Z,100100.14
2022-09-30T13:55:21.566Z,100098.42
2022-09-30T13:58:54.497Z,100098.89
2022-09-30T14:02:22.078Z,100096.63
2022-09-30T14:05:25.091Z,100091.86
2022-09-30T14:08:54.281Z,100092.88
2022-09-30T14:15:04.533Z,100099.34
2022-09-30T14:18:27.155Z,100097.70
2022-09-30T14:21:40.375Z,100093.14
2022-09-30T14:24:28.493Z,100100.88
2022-09-30T14:27:44.285Z,100105.10
2022-09-30T14:30:28.665Z,100107.95
2022-09-30T14:33:28.887Z,100114.05
2022-09-30T14:36:24.673Z,100121.29
2022-09-30T14:39:10.659Z,100118.91
2022-09-30T14:42:16.274Z,100119.10
2022-09-30T14:44:51.510Z,100117.14
2022-09-30T14:48:07.506Z,100118.91
2022-09-30T14:51:06.126Z,100121.23
2022-09-30T14:53:57.896Z,100121.62
2022-09-30T14:56:46.857Z,100124.13
2022-09-30T14:59:38.303Z,100122.12
2022-09-30T15:02:26.624Z,100115.22
2022-09-30T15:05:01.626Z,100112.52
2022-09-30T15:07:51.126Z,100114.27
2022-09-30T15:10:30.618Z,100120.05
2022-09-30T15:13:11.113Z,100120.42
2022-09-30T15:15:51.754Z,100121.28
2022-09-30T15:18:45.056Z,100121.55
2022-09-30T15:21:20.298Z,100123.41
2022-09-30T15:24:04.779Z,100122.14
2022-09-30T15:26:42.571Z,100122.85
2022-09-30T15:29:24.830Z,100122.38
2022-09-30T15:32:25.811Z,100123.48
2022-09-30T15:35:13.876Z,100125.84
2022-09-30T15:37:57.587Z,100127.64
2022-09-30T15:40:47.274Z,100128.55
2022-09-30T15:43:54.239Z,100132.90
2022-09-30T15:46:39.923Z,100142.42
2022-09-30T15:49:45.240Z,100145.86
2022-09-30T15:52:43.288Z,100153.13
2022-09-30T15:56:16.112Z,100160.54
2022-09-30T15:59:01.864Z,100163.09
2022-09-30T16:01:54.115Z,100165.58
2022-09-30T16:04:28.862Z,100168.90
2022-09-30T16:07:07.921Z,100173.88
2022-09-30T16:09:41.786Z,100171.08
2022-09-30T16:12:18.443Z,100170.38
2022-09-30T16:15:17.779Z,100168.73
2022-09-30T16:17:50.275Z,100172.89
2022-09-30T16:20:31.856Z,100169.88
2022-09-30T16:23:09.205Z,100173.47
2022-09-30T16:25:45.282Z,100175.08
2022-09-30T16:28:16.282Z,100175.64
2022-09-30T16:31:03.041Z,100182.09
2022-09-30T16:33:43.067Z,100186.27
2022-09-30T16:36:20.515Z,100193.14
2022-09-30T16:38:57.751Z,100190.14
2022-09-30T16:41:38.977Z,100185.19
2022-09-30T16:44:21.459Z,100194.55
2022-09-30T16:47:04.770Z,100202.09
2022-09-30T16:49:42.954Z,100196.53
2022-09-30T16:52:19.004Z,100180.20
2022-09-30T16:54:52.322Z,100167.79
2022-09-30T16:57:24.497Z,100162.66
2022-09-30T17:00:01.314Z,100165.12
2022-09-30T17:02:43.956Z,100169.34
2022-09-30T17:05:23.704Z,100177.92
2022-09-30T17:08:01.770Z,100182.20
2022-09-30T17:10:36.014Z,100186.48
2022-09-30T17:13:08.614Z,100191.89
2022-09-30T17:15:49.838Z,100197.38
2022-09-30T17:18:20.299Z,100201.43
2022-09-30T17:20:53.674Z,100213.66
2022-09-30T17:23:26.070Z,100214.29
2022-09-30T17:26:00.298Z,100217.64
2022-09-30T17:28:29.358Z,100220.49
2022-09-30T17:30:58.498Z,100221.82
2022-09-30T17:33:32.676Z,100226.20
2022-09-30T17:36:06.170Z,100232.52
2022-09-30T17:38:49.748Z,100238.45
2022-09-30T17:41:50.317Z,100232.84
2022-09-30T17:44:24.734Z,100230.73
2022-09-30T17:47:00.293Z,100237.55
2022-09-30T17:49:37.224Z,100243.38
2022-09-30T17:52:15.473Z,100247.86
2022-09-30T17:54:51.146Z,100248.38
2022-09-30T17:57:24.526Z,100248.20
2022-09-30T17:59:59.016Z,100247.02
2022-09-30T18:02:33.186Z,100235.45
2022-09-30T18:05:02.803Z,100227.63
2022-09-30T18:07:35.445Z,100225.38
2022-09-30T18:13:39.988Z,100236.52
2022-09-30T18:16:18.387Z,100245.40
2022-09-30T18:21:39.453Z,100237.02
2022-09-30T18:24:12.913Z,100240.73
2022-09-30T18:26:48.563Z,100239.98
2022-09-30T18:29:41.101Z,100235.67
2022-09-30T18:32:25.102Z,100247.30
2022-09-30T18:34:59.492Z,100256.92
2022-09-30T18:37:33.504Z,100258.88
2022-09-30T18:40:02.919Z,100252.55
2022-09-30T18:42:38.699Z,100249.51
2022-09-30T18:45:15.203Z,100248.73
2022-09-30T18:47:59.582Z,100250.77
2022-09-30T18:50:34.711Z,100252.64
2022-09-30T18:53:41.015Z,100251.70
2022-09-30T18:59:30.544Z,100232.60
2022-09-30T19:02:15.679Z,100233.16
2022-09-30T19:05:07.690Z,100238.05
2022-09-30T19:08:01.606Z,100244.40
2022-09-30T19:10:49.488Z,100245.38
2022-09-30T19:13:41.879Z,100251.08
2022-09-30T19:16:36.571Z,100250.03
2022-09-30T19:19:13.590Z,100253.13
2022-09-30T19:21:46.186Z,100255.70
2022-09-30T19:24:27.249Z,100257.30
2022-09-30T19:27:01.483Z,100257.52
2022-09-30T19:29:43.813Z,100255.18
2022-09-30T19:32:24.565Z,100255.05
2022-09-30T19:35:06.056Z,100253.84
2022-09-30T19:38:02.218Z,100250.75
2022-09-30T19:40:55.425Z,100252.06
2022-09-30T19:43:29.840Z,100247.93
2022-09-30T19:46:05.349Z,100243.73
2022-09-30T19:48:35.858Z,100245.58
2022-09-30T19:51:14.933Z,100248.34
2022-09-30T19:53:59.774Z,100247.52
2022-09-30T19:56:36.424Z,100243.76
2022-09-30T19:59:06.167Z,100249.36
2022-09-30T20:01:43.178Z,100249.89
2022-09-30T20:04:48.414Z,100240.29
2022-09-30T20:07:22.007Z,100231.42
2022-09-30T20:09:53.901Z,100228.63
2022-09-30T20:12:24.013Z,100230.34
2022-09-30T20:15:15.993Z,100227.05
2022-09-30T20:17:45.694Z,100221.49
2022-09-30T20:20:34.725Z,100219.85
2022-09-30T20:23:09.013Z,100224.98
2022-09-30T20:25:43.045Z,100224.52
2022-09-30T20:28:14.618Z,100221.66
2022-09-30T20:30:49.531Z,100225.57
2022-09-30T20:33:24.800Z,100234.04
2022-09-30T20:35:56.054Z,100236.80
2022-09-30T20:38:25.505Z,100238.73
2022-09-30T20:40:58.961Z,100236.08
2022-09-30T20:43:33.045Z,100231.59
2022-09-30T20:46:05.859Z,100230.25
2022-09-30T20:48:43.923Z,100234.66
2022-09-30T20:51:19.977Z,100238.56
2022-09-30T20:53:57.898Z,100240.48
2022-09-30T20:56:44.065Z,100238.77
2022-09-30T20:59:30.643Z,100233.09
2022-09-30T21:02:32.896Z,100231.10
2022-09-30T21:05:26.265Z,100230.66
2022-09-30T21:08:09.688Z,100234.80
2022-09-30T21:16:00.398Z,100231.91
2022-09-30T21:19:01.557Z,100234.21
2022-09-30T21:22:31.203Z,100231.44
2022-09-30T21:26:07.404Z,100228.85
2022-09-30T21:28:49.327Z,100225.55
2022-09-30T21:45:44.972Z,100226.23
2022-09-30T21:48:20.213Z,100225.73
2022-09-30T21:50:48.359Z,100227.77
2022-09-30T21:53:21.133Z,100229.67
2022-09-30T21:55:53.182Z,100227.98
2022-09-30T21:58:26.232Z,100231.90
2022-09-30T22:01:09.045Z,100230.31
2022-09-30T22:03:43.268Z,100230.19
2022-09-30T22:06:19.703Z,100233.98
2022-09-30T22:08:56.433Z,100233.34
2022-09-30T22:11:47.901Z,100225.86
2022-09-30T22:14:26.990Z,100222.19
2022-09-30T22:17:11.746Z,100220.45
2022-09-30T22:20:01.732Z,100219.48
2022-09-30T22:22:45.668Z,100227.94
2022-09-30T22:25:45.734Z,100226.67
2022-09-30T22:28:25.367Z,100226.91
2022-09-30T22:30:59.696Z,100224.56
2022-09-30T22:33:57.191Z,100223.89
2022-09-30T22:37:07.378Z,100222.58
2022-09-30T22:39:51.064Z,100212.56
2022-09-30T22:42:56.451Z,100214.67
2022-09-30T22:45:34.752Z,100214.92
2022-09-30T22:48:46.204Z,100210.77
2022-09-30T22:51:35.333Z,100208.16
2022-09-30T22:54:22.301Z,100215.47
2022-09-30T22:57:02.675Z,100219.80
2022-09-30T22:59:52.752Z,100221.74
2022-09-30T23:02:40.417Z,100223.27
2022-09-30T23:05:12.512Z,100221.30
2022-09-30T23:07:45.106Z,100218.63
2022-09-30T23:10:34.648Z,100211.92
2022-09-30T23:16:37.222Z,100202.07
2022-09-30T23:19:41.514Z,100204.92
2022-09-30T23:22:45.675Z,100203.10
2022-09-30T23:25:52.358Z,100199.39
2022-09-30T23:28:40.603Z,100202.30
2022-09-30T23:31:35.127Z,100205.33
2022-09-30T23:34:35.749Z,100208.91
2022-09-30T23:37:22.020Z,100212.48
2022-09-30T23:40:23.900Z,100213.53
2022-09-30T23:43:17.345Z,100216.85
2022-09-30T23:46:14.273Z,100222.19
2022-09-30T23:48:55.531Z,100222.02
2022-09-30T23:51:52.487Z,100221.89
2022-09-30T23:57:38.588Z,100220.95
